Terminal Aerodrome Forecast
Issued by NWS

Home | Current Version | Previous Version | Text Only | Print | Product List | Glossary On
Versions: 1 2 3 4 5 6 7 8 9 10 11 12 13
000
FTUS43 KMQT 211734
TAFSAW
TAF
KSAW 211734Z 2118/2218 22010KT P6SM FEW200
     FM220000 19007KT P6SM BKN200
     FM220900 21004KT P6SM SCT009
     FM221200 VRB05KT P6SM BKN009
     FM221500 30007KT P6SM BKN015=

USA.gov is the U.S. government's official web portal to all federal, state and local government web resources and services.